sensor_id;sensor_type;location;lat;lon;timestamp;pressure;altitude;pressure_sealevel;temperature;humidity
56420;BME280;42323;52.170;7.538;2023-07-16T00:01:07;100423.75;;;17.83;nan
56420;BME280;42323;52.170;7.538;2023-07-16T00:03:38;100363.44;;;17.43;nan
56420;BME280;42323;52.170;7.538;2023-07-16T00:06:16;100409.59;;;17.77;nan
56420;BME280;42323;52.170;7.538;2023-07-16T00:08:51;100353.53;;;17.39;nan
56420;BME280;42323;52.170;7.538;2023-07-16T00:11:30;100379.44;;;17.48;nan
56420;BME280;42323;52.170;7.538;2023-07-16T00:14:02;100364.66;;;17.29;nan
56420;BME280;42323;52.170;7.538;2023-07-16T00:16:34;100444.13;;;17.71;nan
56420;BME280;42323;52.170;7.538;2023-07-16T01:54:47;100501.09;;;17.01;nan
56420;BME280;42323;52.170;7.538;2023-07-16T02:01:18;100515.53;;;17.05;nan
56420;BME280;42323;52.170;7.538;2023-07-16T02:11:58;100460.47;;;16.71;nan
56420;BME280;42323;52.170;7.538;2023-07-16T02:20:21;100436.28;;;16.49;nan
56420;BME280;42323;52.170;7.538;2023-07-16T02:23:38;100403.97;;;16.28;nan
56420;BME280;42323;52.170;7.538;2023-07-16T02:26:47;100447.63;;;16.56;nan
56420;BME280;42323;52.170;7.538;2023-07-16T02:32:48;100498.63;;;16.63;nan
56420;BME280;42323;52.170;7.538;2023-07-16T02:35:35;100461.50;;;16.33;nan
56420;BME280;42323;52.170;7.538;2023-07-16T02:39:04;100460.97;;;16.24;nan
56420;BME280;42323;52.170;7.538;2023-07-16T02:41:44;100445.97;;;15.93;nan
56420;BME280;42323;52.170;7.538;2023-07-16T02:47:48;100548.47;;;16.41;nan
56420;BME280;42323;52.170;7.538;2023-07-16T02:50:51;100455.00;;;15.79;nan
56420;BME280;42323;52.170;7.538;2023-07-16T02:54:28;100417.25;;;15.40;nan
56420;BME280;42323;52.170;7.538;2023-07-16T02:56:51;100531.41;;;16.12;nan
56420;BME280;42323;52.170;7.538;2023-07-16T02:59:26;100484.94;;;15.73;nan
56420;BME280;42323;52.170;7.538;2023-07-16T03:02:12;100499.34;;;15.77;nan
56420;BME280;42323;52.170;7.538;2023-07-16T03:04:53;100492.69;;;15.68;nan
56420;BME280;42323;52.170;7.538;2023-07-16T03:07:38;100524.16;;;15.76;nan
56420;BME280;42323;52.170;7.538;2023-07-16T03:10:20;100558.75;;;15.99;nan
56420;BME280;42323;52.170;7.538;2023-07-16T03:13:15;100482.03;;;15.43;nan
56420;BME280;42323;52.170;7.538;2023-07-16T03:16:01;100500.28;;;15.51;nan
56420;BME280;42323;52.170;7.538;2023-07-16T03:18:37;100505.75;;;15.49;nan
56420;BME280;42323;52.170;7.538;2023-07-16T03:21:39;100426.88;;;14.90;nan
56420;BME280;42323;52.170;7.538;2023-07-16T03:24:13;100545.94;;;15.65;nan
56420;BME280;42323;52.170;7.538;2023-07-16T03:27:06;100481.16;;;15.17;nan
56420;BME280;42323;52.170;7.538;2023-07-16T03:29:48;100500.59;;;15.29;nan
56420;BME280;42323;52.170;7.538;2023-07-16T03:32:31;100514.75;;;15.42;nan
56420;BME280;42323;52.170;7.538;2023-07-16T03:35:42;100445.13;;;14.91;nan
56420;BME280;42323;52.170;7.538;2023-07-16T03:38:23;100586.09;;;15.80;nan
56420;BME280;42323;52.170;7.538;2023-07-16T03:41:06;100482.19;;;15.10;nan
56420;BME280;42323;52.170;7.538;2023-07-16T03:44:07;100444.50;;;14.89;nan
56420;BME280;42323;52.170;7.538;2023-07-16T03:46:52;100429.34;;;14.78;nan
56420;BME280;42323;52.170;7.538;2023-07-16T03:49:24;100476.75;;;14.98;nan
56420;BME280;42323;52.170;7.538;2023-07-16T03:52:20;100527.41;;;15.26;nan
56420;BME280;42323;52.170;7.538;2023-07-16T03:54:56;100526.38;;;15.27;nan
56420;BME280;42323;52.170;7.538;2023-07-16T03:57:46;100512.81;;;15.11;nan
56420;BME280;42323;52.170;7.538;2023-07-16T04:00:30;100534.50;;;15.26;nan
56420;BME280;42323;52.170;7.538;2023-07-16T04:03:30;100557.41;;;15.39;nan
56420;BME280;42323;52.170;7.538;2023-07-16T04:06:11;100574.00;;;15.52;nan
56420;BME280;42323;52.170;7.538;2023-07-16T04:08:41;100440.34;;;14.68;nan
56420;BME280;42323;52.170;7.538;2023-07-16T04:11:15;100516.25;;;15.18;nan
56420;BME280;42323;52.170;7.538;2023-07-16T04:13:52;100470.88;;;14.89;nan
56420;BME280;42323;52.170;7.538;2023-07-16T04:16:28;100466.63;;;14.88;nan
56420;BME280;42323;52.170;7.538;2023-07-16T04:19:07;100439.28;;;14.76;nan
56420;BME280;42323;52.170;7.538;2023-07-16T04:21:39;100589.81;;;15.66;nan
56420;BME280;42323;52.170;7.538;2023-07-16T04:24:13;100484.03;;;15.02;nan
56420;BME280;42323;52.170;7.538;2023-07-16T04:26:56;100423.09;;;14.66;nan
56420;BME280;42323;52.170;7.538;2023-07-16T04:29:22;100464.41;;;14.92;nan
56420;BME280;42323;52.170;7.538;2023-07-16T04:31:49;100545.38;;;15.49;nan
56420;BME280;42323;52.170;7.538;2023-07-16T04:34:18;100624.59;;;16.01;nan
56420;BME280;42323;52.170;7.538;2023-07-16T04:36:44;100613.84;;;16.02;nan
56420;BME280;42323;52.170;7.538;2023-07-16T04:39:11;100606.16;;;15.94;nan
56420;BME280;42323;52.170;7.538;2023-07-16T04:41:38;100614.16;;;16.13;nan
56420;BME280;42323;52.170;7.538;2023-07-16T04:44:05;100613.53;;;16.17;nan
56420;BME280;42323;52.170;7.538;2023-07-16T04:46:31;100604.38;;;16.20;nan
56420;BME280;42323;52.170;7.538;2023-07-16T04:48:58;100621.75;;;16.34;nan
56420;BME280;42323;52.170;7.538;2023-07-16T04:51:25;100639.41;;;16.40;nan
56420;BME280;42323;52.170;7.538;2023-07-16T04:53:52;100630.25;;;16.43;nan
56420;BME280;42323;52.170;7.538;2023-07-16T04:56:19;100625.59;;;16.38;nan
56420;BME280;42323;52.170;7.538;2023-07-16T04:58:46;100656.75;;;16.61;nan
56420;BME280;42323;52.170;7.538;2023-07-16T05:01:12;100619.03;;;16.47;nan
56420;BME280;42323;52.170;7.538;2023-07-16T05:03:39;100612.69;;;16.48;nan
56420;BME280;42323;52.170;7.538;2023-07-16T05:06:06;100635.56;;;16.68;nan
56420;BME280;42323;52.170;7.538;2023-07-16T05:08:32;100653.69;;;16.64;nan
56420;BME280;42323;52.170;7.538;2023-07-16T05:10:59;100630.75;;;16.58;nan
56420;BME280;42323;52.170;7.538;2023-07-16T05:13:26;100640.50;;;16.58;nan
56420;BME280;42323;52.170;7.538;2023-07-16T05:15:52;100640.09;;;16.61;nan
56420;BME280;42323;52.170;7.538;2023-07-16T05:18:19;100637.00;;;16.64;nan
56420;BME280;42323;52.170;7.538;2023-07-16T05:20:48;100654.66;;;16.70;nan
56420;BME280;42323;52.170;7.538;2023-07-16T05:23:15;100671.75;;;16.74;nan
56420;BME280;42323;52.170;7.538;2023-07-16T05:25:49;100666.84;;;16.71;nan
56420;BME280;42323;52.170;7.538;2023-07-16T05:28:18;100673.03;;;16.65;nan
56420;BME280;42323;52.170;7.538;2023-07-16T05:30:45;100654.38;;;16.53;nan
56420;BME280;42323;52.170;7.538;2023-07-16T05:33:12;100651.16;;;16.51;nan
56420;BME280;42323;52.170;7.538;2023-07-16T05:35:39;100665.34;;;16.56;nan
56420;BME280;42323;52.170;7.538;2023-07-16T05:38:06;100675.13;;;16.56;nan
56420;BME280;42323;52.170;7.538;2023-07-16T05:40:32;100683.38;;;16.66;nan
56420;BME280;42323;52.170;7.538;2023-07-16T05:42:59;100674.63;;;16.66;nan
56420;BME280;42323;52.170;7.538;2023-07-16T05:45:26;100663.19;;;16.47;nan
56420;BME280;42323;52.170;7.538;2023-07-16T05:47:52;100674.91;;;16.58;nan
56420;BME280;42323;52.170;7.538;2023-07-16T05:50:19;100669.59;;;16.58;nan
56420;BME280;42323;52.170;7.538;2023-07-16T05:52:45;100697.81;;;16.70;nan
56420;BME280;42323;52.170;7.538;2023-07-16T05:55:14;100693.53;;;16.69;nan
56420;BME280;42323;52.170;7.538;2023-07-16T05:57:41;100702.06;;;16.78;nan
56420;BME280;42323;52.170;7.538;2023-07-16T06:00:08;100707.75;;;16.82;nan
56420;BME280;42323;52.170;7.538;2023-07-16T06:02:35;100698.84;;;16.76;nan
56420;BME280;42323;52.170;7.538;2023-07-16T06:05:02;100710.81;;;16.78;nan
56420;BME280;42323;52.170;7.538;2023-07-16T06:07:29;100702.19;;;16.90;nan
56420;BME280;42323;52.170;7.538;2023-07-16T06:09:55;100692.81;;;16.87;nan
56420;BME280;42323;52.170;7.538;2023-07-16T06:12:22;100714.50;;;17.02;nan
56420;BME280;42323;52.170;7.538;2023-07-16T06:14:48;100701.84;;;17.04;nan
56420;BME280;42323;52.170;7.538;2023-07-16T06:17:15;100651.34;;;16.81;nan
56420;BME280;42323;52.170;7.538;2023-07-16T06:19:42;100654.97;;;16.87;nan
56420;BME280;42323;52.170;7.538;2023-07-16T06:22:09;100716.22;;;17.15;nan
56420;BME280;42323;52.170;7.538;2023-07-16T06:24:35;100712.13;;;17.19;nan
56420;BME280;42323;52.170;7.538;2023-07-16T06:27:02;100726.03;;;17.33;nan
56420;BME280;42323;52.170;7.538;2023-07-16T06:29:29;100722.44;;;17.27;nan
56420;BME280;42323;52.170;7.538;2023-07-16T06:31:57;100723.41;;;17.33;nan
56420;BME280;42323;52.170;7.538;2023-07-16T06:34:24;100717.88;;;17.35;nan
56420;BME280;42323;52.170;7.538;2023-07-16T06:36:51;100724.97;;;17.41;nan
56420;BME280;42323;52.170;7.538;2023-07-16T06:39:18;100735.44;;;17.54;nan
56420;BME280;42323;52.170;7.538;2023-07-16T06:41:45;100716.22;;;17.40;nan
56420;BME280;42323;52.170;7.538;2023-07-16T06:44:11;100729.38;;;17.65;nan
56420;BME280;42323;52.170;7.538;2023-07-16T06:46:38;100709.97;;;17.53;nan
56420;BME280;42323;52.170;7.538;2023-07-16T06:49:06;100713.34;;;17.60;nan
56420;BME280;42323;52.170;7.538;2023-07-16T06:51:33;100705.19;;;17.62;nan
56420;BME280;42323;52.170;7.538;2023-07-16T06:54:00;100694.88;;;17.53;nan
56420;BME280;42323;52.170;7.538;2023-07-16T06:56:26;100726.31;;;17.68;nan
56420;BME280;42323;52.170;7.538;2023-07-16T06:58:53;100716.47;;;17.75;nan
56420;BME280;42323;52.170;7.538;2023-07-16T07:01:19;100733.03;;;17.89;nan
56420;BME280;42323;52.170;7.538;2023-07-16T07:03:46;100735.19;;;17.80;nan
56420;BME280;42323;52.170;7.538;2023-07-16T07:06:13;100732.94;;;17.96;nan
56420;BME280;42323;52.170;7.538;2023-07-16T07:08:39;100741.50;;;17.98;nan
56420;BME280;42323;52.170;7.538;2023-07-16T07:11:06;100742.75;;;17.95;nan
56420;BME280;42323;52.170;7.538;2023-07-16T07:13:33;100697.41;;;17.85;nan
56420;BME280;42323;52.170;7.538;2023-07-16T07:15:59;100772.94;;;18.31;nan
56420;BME280;42323;52.170;7.538;2023-07-16T07:18:26;100736.84;;;18.12;nan
56420;BME280;42323;52.170;7.538;2023-07-16T07:20:53;100777.09;;;18.39;nan
56420;BME280;42323;52.170;7.538;2023-07-16T07:23:29;100714.47;;;18.08;nan
56420;BME280;42323;52.170;7.538;2023-07-16T07:25:56;100750.06;;;18.30;nan
56420;BME280;42323;52.170;7.538;2023-07-16T07:28:22;100708.28;;;18.14;nan
56420;BME280;42323;52.170;7.538;2023-07-16T07:30:49;100749.38;;;18.23;nan
56420;BME280;42323;52.170;7.538;2023-07-16T07:33:15;100758.09;;;18.42;nan
56420;BME280;42323;52.170;7.538;2023-07-16T07:35:42;100764.56;;;18.46;nan
56420;BME280;42323;52.170;7.538;2023-07-16T07:38:09;100746.31;;;18.38;nan
56420;BME280;42323;52.170;7.538;2023-07-16T07:40:35;100742.09;;;18.48;nan
56420;BME280;42323;52.170;7.538;2023-07-16T07:43:02;100728.22;;;18.46;nan
56420;BME280;42323;52.170;7.538;2023-07-16T07:45:28;100773.72;;;18.80;nan
56420;BME280;42323;52.170;7.538;2023-07-16T07:47:55;100771.31;;;18.90;nan
56420;BME280;42323;52.170;7.538;2023-07-16T07:50:22;100740.72;;;18.88;nan
56420;BME280;42323;52.170;7.538;2023-07-16T07:52:48;100774.38;;;19.17;nan
56420;BME280;42323;52.170;7.538;2023-07-16T07:55:15;100781.78;;;19.27;nan
56420;BME280;42323;52.170;7.538;2023-07-16T07:57:41;100787.09;;;19.27;nan
56420;BME280;42323;52.170;7.538;2023-07-16T08:00:08;100786.84;;;19.17;nan
56420;BME280;42323;52.170;7.538;2023-07-16T08:02:38;100773.22;;;19.13;nan
56420;BME280;42323;52.170;7.538;2023-07-16T08:05:06;100766.41;;;19.17;nan
56420;BME280;42323;52.170;7.538;2023-07-16T08:07:33;100768.16;;;19.35;nan
56420;BME280;42323;52.170;7.538;2023-07-16T08:09:59;100781.44;;;19.59;nan
56420;BME280;42323;52.170;7.538;2023-07-16T08:12:26;100804.69;;;19.63;nan
56420;BME280;42323;52.170;7.538;2023-07-16T08:14:52;100775.22;;;19.53;nan
56420;BME280;42323;52.170;7.538;2023-07-16T08:17:19;100785.63;;;19.66;nan
56420;BME280;42323;52.170;7.538;2023-07-16T08:19:49;100797.44;;;19.70;nan
56420;BME280;42323;52.170;7.538;2023-07-16T08:22:15;100797.53;;;19.75;nan
56420;BME280;42323;52.170;7.538;2023-07-16T08:24:42;100793.38;;;19.91;nan
56420;BME280;42323;52.170;7.538;2023-07-16T08:27:08;100721.69;;;19.38;nan
56420;BME280;42323;52.170;7.538;2023-07-16T08:29:36;100793.47;;;19.96;nan
56420;BME280;42323;52.170;7.538;2023-07-16T08:32:03;100826.47;;;20.24;nan
56420;BME280;42323;52.170;7.538;2023-07-16T08:34:29;100811.31;;;20.36;nan
56420;BME280;42323;52.170;7.538;2023-07-16T08:36:56;100818.03;;;20.39;nan
56420;BME280;42323;52.170;7.538;2023-07-16T08:39:22;100814.63;;;20.55;nan
56420;BME280;42323;52.170;7.538;2023-07-16T08:41:51;100816.63;;;20.48;nan
56420;BME280;42323;52.170;7.538;2023-07-16T08:44:19;100825.75;;;20.40;nan
56420;BME280;42323;52.170;7.538;2023-07-16T08:46:46;100837.56;;;20.33;nan
56420;BME280;42323;52.170;7.538;2023-07-16T08:49:12;100822.22;;;20.23;nan
56420;BME280;42323;52.170;7.538;2023-07-16T08:51:39;100840.81;;;20.35;nan
56420;BME280;42323;52.170;7.538;2023-07-16T08:54:07;100828.66;;;20.39;nan
56420;BME280;42323;52.170;7.538;2023-07-16T08:56:34;100833.38;;;20.60;nan
56420;BME280;42323;52.170;7.538;2023-07-16T08:59:00;100835.44;;;20.58;nan
56420;BME280;42323;52.170;7.538;2023-07-16T09:01:28;100719.63;;;19.63;nan
56420;BME280;42323;52.170;7.538;2023-07-16T09:04:02;100813.06;;;20.30;nan
56420;BME280;42323;52.170;7.538;2023-07-16T09:06:28;100806.25;;;20.23;nan
56420;BME280;42323;52.170;7.538;2023-07-16T09:08:55;100801.81;;;20.28;nan
56420;BME280;42323;52.170;7.538;2023-07-16T09:11:24;100818.13;;;20.56;nan
56420;BME280;42323;52.170;7.538;2023-07-16T09:13:55;100780.97;;;20.49;nan
56420;BME280;42323;52.170;7.538;2023-07-16T09:16:22;100826.91;;;21.01;nan
56420;BME280;42323;52.170;7.538;2023-07-16T09:18:48;100823.78;;;21.04;nan
56420;BME280;42323;52.170;7.538;2023-07-16T09:21:15;100804.75;;;20.84;nan
56420;BME280;42323;52.170;7.538;2023-07-16T09:23:42;100817.16;;;20.90;nan
56420;BME280;42323;52.170;7.538;2023-07-16T09:26:08;100833.25;;;21.12;nan
56420;BME280;42323;52.170;7.538;2023-07-16T09:28:35;100808.84;;;21.20;nan
56420;BME280;42323;52.170;7.538;2023-07-16T09:31:06;100830.28;;;21.59;nan
56420;BME280;42323;52.170;7.538;2023-07-16T09:33:34;100820.47;;;21.82;nan
56420;BME280;42323;52.170;7.538;2023-07-16T09:36:01;100841.19;;;22.13;nan
56420;BME280;42323;52.170;7.538;2023-07-16T09:38:29;100835.75;;;22.08;nan
56420;BME280;42323;52.170;7.538;2023-07-16T09:40:56;100832.38;;;22.13;nan
56420;BME280;42323;52.170;7.538;2023-07-16T09:43:23;100832.44;;;22.18;nan
56420;BME280;42323;52.170;7.538;2023-07-16T09:45:50;100856.94;;;22.15;nan
56420;BME280;42323;52.170;7.538;2023-07-16T09:48:16;100834.81;;;21.97;nan
56420;BME280;42323;52.170;7.538;2023-07-16T09:50:50;100833.31;;;22.45;nan
56420;BME280;42323;52.170;7.538;2023-07-16T09:53:19;100859.25;;;22.72;nan
56420;BME280;42323;52.170;7.538;2023-07-16T09:55:47;100837.59;;;22.95;nan
56420;BME280;42323;52.170;7.538;2023-07-16T09:58:16;100865.47;;;23.04;nan
56420;BME280;42323;52.170;7.538;2023-07-16T10:00:46;100842.59;;;22.65;nan
56420;BME280;42323;52.170;7.538;2023-07-16T10:03:14;100856.97;;;22.59;nan
56420;BME280;42323;52.170;7.538;2023-07-16T10:05:42;100860.06;;;22.50;nan
56420;BME280;42323;52.170;7.538;2023-07-16T10:08:16;100873.09;;;22.69;nan
56420;BME280;42323;52.170;7.538;2023-07-16T10:10:45;100865.97;;;22.52;nan
56420;BME280;42323;52.170;7.538;2023-07-16T10:13:15;100863.91;;;23.09;nan
56420;BME280;42323;52.170;7.538;2023-07-16T10:15:53;100810.69;;;22.53;nan
56420;BME280;42323;52.170;7.538;2023-07-16T10:18:28;100872.91;;;22.97;nan
56420;BME280;42323;52.170;7.538;2023-07-16T10:21:04;100870.00;;;22.55;nan
56420;BME280;42323;52.170;7.538;2023-07-16T10:23:41;100886.28;;;22.32;nan
56420;BME280;42323;52.170;7.538;2023-07-16T10:26:14;100881.69;;;22.49;nan
56420;BME280;42323;52.170;7.538;2023-07-16T10:28:45;100873.09;;;22.91;nan
56420;BME280;42323;52.170;7.538;2023-07-16T10:31:23;100879.38;;;23.34;nan
56420;BME280;42323;52.170;7.538;2023-07-16T10:34:01;100831.53;;;23.05;nan
56420;BME280;42323;52.170;7.538;2023-07-16T10:36:28;100886.59;;;24.02;nan
56420;BME280;42323;52.170;7.538;2023-07-16T10:38:55;100821.25;;;23.61;nan
56420;BME280;42323;52.170;7.538;2023-07-16T10:41:28;100889.59;;;23.74;nan
56420;BME280;42323;52.170;7.538;2023-07-16T10:43:54;100881.53;;;24.74;nan
56420;BME280;42323;52.170;7.538;2023-07-16T10:46:24;100871.13;;;24.93;nan
56420;BME280;42323;52.170;7.538;2023-07-16T10:48:51;100899.38;;;23.95;nan
56420;BME280;42323;52.170;7.538;2023-07-16T10:51:17;100896.59;;;24.85;nan
56420;BME280;42323;52.170;7.538;2023-07-16T10:53:44;100903.00;;;24.16;nan
56420;BME280;42323;52.170;7.538;2023-07-16T10:56:10;100903.88;;;23.85;nan
56420;BME280;42323;52.170;7.538;2023-07-16T10:58:37;100895.91;;;23.95;nan
56420;BME280;42323;52.170;7.538;2023-07-16T11:01:04;100894.69;;;23.43;nan
56420;BME280;42323;52.170;7.538;2023-07-16T11:03:34;100886.84;;;23.04;nan
56420;BME280;42323;52.170;7.538;2023-07-16T11:06:10;100889.22;;;22.79;nan
56420;BME280;42323;52.170;7.538;2023-07-16T11:08:38;100899.94;;;22.57;nan
56420;BME280;42323;52.170;7.538;2023-07-16T11:11:12;100915.66;;;22.75;nan
56420;BME280;42323;52.170;7.538;2023-07-16T11:13:38;100919.25;;;22.86;nan
56420;BME280;42323;52.170;7.538;2023-07-16T11:16:11;100900.19;;;22.77;nan
56420;BME280;42323;52.170;7.538;2023-07-16T11:18:38;100887.81;;;23.20;nan
56420;BME280;42323;52.170;7.538;2023-07-16T11:21:07;100863.53;;;23.59;nan
56420;BME280;42323;52.170;7.538;2023-07-16T11:26:05;100871.50;;;23.22;nan
56420;BME280;42323;52.170;7.538;2023-07-16T11:28:39;100878.66;;;24.23;nan
56420;BME280;42323;52.170;7.538;2023-07-16T11:31:16;100906.53;;;24.27;nan
56420;BME280;42323;52.170;7.538;2023-07-16T11:33:46;100864.06;;;23.61;nan
56420;BME280;42323;52.170;7.538;2023-07-16T11:36:13;100905.53;;;23.96;nan
56420;BME280;42323;52.170;7.538;2023-07-16T11:38:40;100912.69;;;24.85;nan
56420;BME280;42323;52.170;7.538;2023-07-16T11:41:07;100917.31;;;24.37;nan
56420;BME280;42323;52.170;7.538;2023-07-16T11:43:37;100906.38;;;23.96;nan
56420;BME280;42323;52.170;7.538;2023-07-16T11:46:15;100918.84;;;23.81;nan
56420;BME280;42323;52.170;7.538;2023-07-16T11:48:45;100929.84;;;23.57;nan
56420;BME280;42323;52.170;7.538;2023-07-16T11:53:47;100864.03;;;23.56;nan
56420;BME280;42323;52.170;7.538;2023-07-16T11:56:13;100920.25;;;23.93;nan
56420;BME280;42323;52.170;7.538;2023-07-16T12:01:16;100900.56;;;24.10;nan
56420;BME280;42323;52.170;7.538;2023-07-16T12:03:45;100929.44;;;24.08;nan
56420;BME280;42323;52.170;7.538;2023-07-16T12:06:12;100926.44;;;25.09;nan
56420;BME280;42323;52.170;7.538;2023-07-16T12:08:38;100923.69;;;26.32;nan
56420;BME280;42323;52.170;7.538;2023-07-16T12:11:05;100929.72;;;25.83;nan
56420;BME280;42323;52.170;7.538;2023-07-16T12:13:31;100925.41;;;25.46;nan
56420;BME280;42323;52.170;7.538;2023-07-16T12:15:58;100929.88;;;24.99;nan
56420;BME280;42323;52.170;7.538;2023-07-16T12:18:25;100912.25;;;25.34;nan
56420;BME280;42323;52.170;7.538;2023-07-16T12:20:54;100924.75;;;26.46;nan
56420;BME280;42323;52.170;7.538;2023-07-16T12:23:21;100931.22;;;26.24;nan
56420;BME280;42323;52.170;7.538;2023-07-16T12:25:49;100930.25;;;25.44;nan
56420;BME280;42323;52.170;7.538;2023-07-16T12:28:16;100934.09;;;24.80;nan
56420;BME280;42323;52.170;7.538;2023-07-16T12:30:42;100932.41;;;25.52;nan
56420;BME280;42323;52.170;7.538;2023-07-16T12:33:09;100926.50;;;25.65;nan
56420;BME280;42323;52.170;7.538;2023-07-16T12:35:36;100929.94;;;25.30;nan
56420;BME280;42323;52.170;7.538;2023-07-16T12:38:02;100962.69;;;25.32;nan
56420;BME280;42323;52.170;7.538;2023-07-16T12:40:29;100934.25;;;25.67;nan
56420;BME280;42323;52.170;7.538;2023-07-16T12:42:57;100938.47;;;26.29;nan
56420;BME280;42323;52.170;7.538;2023-07-16T12:45:23;100935.59;;;26.05;nan
56420;BME280;42323;52.170;7.538;2023-07-16T12:47:50;100945.53;;;25.64;nan
56420;BME280;42323;52.170;7.538;2023-07-16T12:50:16;100944.47;;;25.85;nan
56420;BME280;42323;52.170;7.538;2023-07-16T12:52:43;100955.88;;;27.56;nan
56420;BME280;42323;52.170;7.538;2023-07-16T12:55:10;100964.69;;;28.73;nan
56420;BME280;42323;52.170;7.538;2023-07-16T12:57:36;100934.84;;;28.45;nan
56420;BME280;42323;52.170;7.538;2023-07-16T13:00:03;100952.63;;;27.25;nan
56420;BME280;42323;52.170;7.538;2023-07-16T13:02:31;100950.31;;;26.28;nan
56420;BME280;42323;52.170;7.538;2023-07-16T13:04:58;100923.00;;;25.65;nan
56420;BME280;42323;52.170;7.538;2023-07-16T13:07:24;100958.44;;;25.77;nan
56420;BME280;42323;52.170;7.538;2023-07-16T13:09:51;100912.78;;;25.72;nan
56420;BME280;42323;52.170;7.538;2023-07-16T13:12:29;100897.94;;;24.93;nan
56420;BME280;42323;52.170;7.538;2023-07-16T13:14:56;100882.72;;;25.24;nan
56420;BME280;42323;52.170;7.538;2023-07-16T13:17:24;100956.00;;;26.06;nan
56420;BME280;42323;52.170;7.538;2023-07-16T13:19:50;100905.22;;;25.08;nan
56420;BME280;42323;52.170;7.538;2023-07-16T13:22:17;100947.53;;;24.85;nan
56420;BME280;42323;52.170;7.538;2023-07-16T13:24:51;100905.50;;;26.13;nan
56420;BME280;42323;52.170;7.538;2023-07-16T13:27:23;100944.13;;;28.05;nan
56420;BME280;42323;52.170;7.538;2023-07-16T13:29:51;100932.44;;;27.57;nan
56420;BME280;42323;52.170;7.538;2023-07-16T13:32:17;100951.50;;;26.76;nan
56420;BME280;42323;52.170;7.538;2023-07-16T13:34:44;100964.03;;;26.11;nan
56420;BME280;42323;52.170;7.538;2023-07-16T13:37:12;100931.59;;;25.62;nan
56420;BME280;42323;52.170;7.538;2023-07-16T13:39:40;100903.94;;;25.46;nan
56420;BME280;42323;52.170;7.538;2023-07-16T13:42:15;100968.34;;;25.66;nan
56420;BME280;42323;52.170;7.538;2023-07-16T13:44:48;100963.84;;;25.82;nan
56420;BME280;42323;52.170;7.538;2023-07-16T13:47:15;100952.25;;;26.12;nan
56420;BME280;42323;52.170;7.538;2023-07-16T13:49:41;100960.50;;;26.31;nan
56420;BME280;42323;52.170;7.538;2023-07-16T13:52:08;100968.59;;;26.26;nan
56420;BME280;42323;52.170;7.538;2023-07-16T13:54:34;100964.34;;;26.05;nan
56420;BME280;42323;52.170;7.538;2023-07-16T13:57:02;100957.59;;;26.22;nan
56420;BME280;42323;52.170;7.538;2023-07-16T13:59:29;100983.63;;;26.27;nan
56420;BME280;42323;52.170;7.538;2023-07-16T14:02:02;100981.50;;;26.19;nan
56420;BME280;42323;52.170;7.538;2023-07-16T14:04:29;100960.56;;;26.21;nan
56420;BME280;42323;52.170;7.538;2023-07-16T14:06:56;100948.22;;;26.10;nan
56420;BME280;42323;52.170;7.538;2023-07-16T14:09:23;100952.50;;;26.11;nan
56420;BME280;42323;52.170;7.538;2023-07-16T14:11:52;100971.19;;;26.62;nan
56420;BME280;42323;52.170;7.538;2023-07-16T14:14:21;100960.31;;;27.37;nan
56420;BME280;42323;52.170;7.538;2023-07-16T14:16:48;100958.00;;;27.20;nan
56420;BME280;42323;52.170;7.538;2023-07-16T14:19:15;100929.34;;;28.03;nan
56420;BME280;42323;52.170;7.538;2023-07-16T14:21:44;100949.75;;;28.81;nan
56420;BME280;42323;52.170;7.538;2023-07-16T14:24:10;100937.06;;;28.81;nan
56420;BME280;42323;52.170;7.538;2023-07-16T14:26:37;100938.78;;;29.15;nan
56420;BME280;42323;52.170;7.538;2023-07-16T14:29:04;100931.28;;;29.63;nan
56420;BME280;42323;52.170;7.538;2023-07-16T14:31:31;100926.22;;;30.03;nan
56420;BME280;42323;52.170;7.538;2023-07-16T14:33:58;100943.25;;;30.59;nan
56420;BME280;42323;52.170;7.538;2023-07-16T14:36:25;100938.09;;;31.35;nan
56420;BME280;42323;52.170;7.538;2023-07-16T14:38:51;100958.09;;;30.75;nan
56420;BME280;42323;52.170;7.538;2023-07-16T14:41:18;100941.41;;;30.95;nan
56420;BME280;42323;52.170;7.538;2023-07-16T14:43:45;100932.66;;;30.35;nan
56420;BME280;42323;52.170;7.538;2023-07-16T14:46:11;100926.75;;;30.46;nan
56420;BME280;42323;52.170;7.538;2023-07-16T14:48:45;100934.03;;;30.05;nan
56420;BME280;42323;52.170;7.538;2023-07-16T14:51:12;100941.41;;;29.20;nan
56420;BME280;42323;52.170;7.538;2023-07-16T14:53:39;100941.91;;;28.12;nan
56420;BME280;42323;52.170;7.538;2023-07-16T14:56:06;100959.22;;;27.72;nan
56420;BME280;42323;52.170;7.538;2023-07-16T14:58:33;100941.03;;;26.75;nan
56420;BME280;42323;52.170;7.538;2023-07-16T15:01:01;100964.31;;;26.15;nan
56420;BME280;42323;52.170;7.538;2023-07-16T15:03:30;100954.13;;;25.76;nan
56420;BME280;42323;52.170;7.538;2023-07-16T15:05:58;100960.28;;;25.46;nan
56420;BME280;42323;52.170;7.538;2023-07-16T15:08:24;100948.16;;;25.13;nan
56420;BME280;42323;52.170;7.538;2023-07-16T15:10:53;100957.97;;;24.87;nan
56420;BME280;42323;52.170;7.538;2023-07-16T15:13:21;100964.00;;;24.51;nan
56420;BME280;42323;52.170;7.538;2023-07-16T15:15:48;100967.91;;;24.34;nan
56420;BME280;42323;52.170;7.538;2023-07-16T15:18:15;100947.38;;;24.02;nan
56420;BME280;42323;52.170;7.538;2023-07-16T15:20:42;100976.38;;;24.15;nan
56420;BME280;42323;52.170;7.538;2023-07-16T15:23:08;100968.94;;;24.75;nan
56420;BME280;42323;52.170;7.538;2023-07-16T15:25:35;100966.50;;;24.68;nan
56420;BME280;42323;52.170;7.538;2023-07-16T15:28:02;100967.28;;;24.69;nan
56420;BME280;42323;52.170;7.538;2023-07-16T15:30:28;100983.88;;;25.18;nan
56420;BME280;42323;52.170;7.538;2023-07-16T15:32:55;100985.56;;;24.82;nan
56420;BME280;42323;52.170;7.538;2023-07-16T15:35:22;100970.16;;;24.52;nan